Terminal Aerodrome Forecast
Issued by NWS Billings, MT

Home | Current Version | Previous Version | Text Only | Print | Product List | Glossary Off
Versions: 1 2 3 4 5 6 7 8 9 10 11 12 13 14 15

000
FTUS45 KBYZ 271734
TAFMLS
TAF
KMLS 271734Z 2718/2818 30025G36KT P6SM VCSH SCT030 BKN045
     FM280000 32017G25KT P6SM FEW030 BKN060
     FM280400 30011KT P6SM SCT070
     FM281200 25008KT P6SM FEW200=

USA.gov is the U.S. government's official web portal to all federal, state and local government web resources and services.